sensor_id;sensor_type;location;lat;lon;timestamp;temperature;humidity
16172;DHT22;8192;53.596;10.166;2024-02-26T00:00:43;2.70;99.90
16172;DHT22;8192;53.596;10.166;2024-02-26T00:03:12;2.60;99.90
16172;DHT22;8192;53.596;10.166;2024-02-26T00:05:38;2.40;99.90
16172;DHT22;8192;53.596;10.166;2024-02-26T00:08:06;2.30;99.90
16172;DHT22;8192;53.596;10.166;2024-02-26T00:10:33;2.20;99.90
16172;DHT22;8192;53.596;10.166;2024-02-26T00:13:00;2.10;99.90
16172;DHT22;8192;53.596;10.166;2024-02-26T00:15:27;2.00;99.90
16172;DHT22;8192;53.596;10.166;2024-02-26T00:17:55;1.90;99.90
16172;DHT22;8192;53.596;10.166;2024-02-26T00:20:22;1.80;99.90
16172;DHT22;8192;53.596;10.166;2024-02-26T00:22:49;1.80;99.90
16172;DHT22;8192;53.596;10.166;2024-02-26T00:25:16;1.90;99.90
16172;DHT22;8192;53.596;10.166;2024-02-26T00:27:43;1.80;99.90
16172;DHT22;8192;53.596;10.166;2024-02-26T00:30:10;1.70;99.90
16172;DHT22;8192;53.596;10.166;2024-02-26T00:32:38;1.70;99.90
16172;DHT22;8192;53.596;10.166;2024-02-26T00:35:07;1.70;99.90
16172;DHT22;8192;53.596;10.166;2024-02-26T00:37:35;1.60;99.90
16172;DHT22;8192;53.596;10.166;2024-02-26T00:40:02;1.60;99.90
16172;DHT22;8192;53.596;10.166;2024-02-26T00:42:29;1.60;99.90
16172;DHT22;8192;53.596;10.166;2024-02-26T00:44:56;1.60;99.90
16172;DHT22;8192;53.596;10.166;2024-02-26T00:47:23;1.50;99.90
16172;DHT22;8192;53.596;10.166;2024-02-26T00:49:49;1.40;99.90
16172;DHT22;8192;53.596;10.166;2024-02-26T00:52:18;1.40;99.90
16172;DHT22;8192;53.596;10.166;2024-02-26T00:54:45;1.40;99.90
16172;DHT22;8192;53.596;10.166;2024-02-26T00:57:12;1.30;99.90
16172;DHT22;8192;53.596;10.166;2024-02-26T00:59:39;1.40;99.90
16172;DHT22;8192;53.596;10.166;2024-02-26T01:02:06;1.30;99.90
16172;DHT22;8192;53.596;10.166;2024-02-26T01:04:32;1.20;99.90
16172;DHT22;8192;53.596;10.166;2024-02-26T01:07:00;1.10;99.90
16172;DHT22;8192;53.596;10.166;2024-02-26T01:09:30;1.00;99.90
16172;DHT22;8192;53.596;10.166;2024-02-26T01:11:57;0.90;99.90
16172;DHT22;8192;53.596;10.166;2024-02-26T01:14:23;0.90;99.90
16172;DHT22;8192;53.596;10.166;2024-02-26T01:16:50;0.90;99.90
16172;DHT22;8192;53.596;10.166;2024-02-26T01:19:17;0.90;99.90
16172;DHT22;8192;53.596;10.166;2024-02-26T01:21:44;0.90;99.90
16172;DHT22;8192;53.596;10.166;2024-02-26T01:24:11;0.80;99.90
16172;DHT22;8192;53.596;10.166;2024-02-26T01:26:39;0.80;99.90
16172;DHT22;8192;53.596;10.166;2024-02-26T01:29:06;0.70;99.90
16172;DHT22;8192;53.596;10.166;2024-02-26T01:31:33;0.50;99.90
16172;DHT22;8192;53.596;10.166;2024-02-26T01:34:00;0.50;99.90
16172;DHT22;8192;53.596;10.166;2024-02-26T01:36:27;0.50;99.90
16172;DHT22;8192;53.596;10.166;2024-02-26T01:38:54;0.40;99.90
16172;DHT22;8192;53.596;10.166;2024-02-26T01:41:21;0.40;99.90
16172;DHT22;8192;53.596;10.166;2024-02-26T01:43:50;0.40;99.90
16172;DHT22;8192;53.596;10.166;2024-02-26T01:46:17;0.40;99.90
16172;DHT22;8192;53.596;10.166;2024-02-26T01:48:46;0.40;99.90
16172;DHT22;8192;53.596;10.166;2024-02-26T01:51:16;0.40;99.90
16172;DHT22;8192;53.596;10.166;2024-02-26T01:53:44;0.30;99.90
16172;DHT22;8192;53.596;10.166;2024-02-26T01:56:11;0.40;99.90
16172;DHT22;8192;53.596;10.166;2024-02-26T01:58:38;0.40;99.90
16172;DHT22;8192;53.596;10.166;2024-02-26T02:01:07;0.30;99.90
16172;DHT22;8192;53.596;10.166;2024-02-26T02:03:35;0.30;99.90
16172;DHT22;8192;53.596;10.166;2024-02-26T02:06:03;0.40;99.90
16172;DHT22;8192;53.596;10.166;2024-02-26T02:08:31;0.40;99.90
16172;DHT22;8192;53.596;10.166;2024-02-26T02:11:00;0.30;99.90
16172;DHT22;8192;53.596;10.166;2024-02-26T02:13:27;0.30;99.90
16172;DHT22;8192;53.596;10.166;2024-02-26T02:16:15;0.30;99.90
16172;DHT22;8192;53.596;10.166;2024-02-26T02:18:42;0.40;99.90
16172;DHT22;8192;53.596;10.166;2024-02-26T02:21:11;0.40;99.90
16172;DHT22;8192;53.596;10.166;2024-02-26T02:23:38;0.40;99.90
16172;DHT22;8192;53.596;10.166;2024-02-26T02:26:05;0.40;99.90
16172;DHT22;8192;53.596;10.166;2024-02-26T02:28:32;0.40;99.90
16172;DHT22;8192;53.596;10.166;2024-02-26T02:30:59;0.30;99.90
16172;DHT22;8192;53.596;10.166;2024-02-26T02:33:26;0.30;99.90
16172;DHT22;8192;53.596;10.166;2024-02-26T02:35:55;0.20;99.90
16172;DHT22;8192;53.596;10.166;2024-02-26T02:38:24;0.20;99.90
16172;DHT22;8192;53.596;10.166;2024-02-26T02:40:53;0.10;99.90
16172;DHT22;8192;53.596;10.166;2024-02-26T02:43:20;0.10;99.90
16172;DHT22;8192;53.596;10.166;2024-02-26T02:45:47;0.00;99.90
16172;DHT22;8192;53.596;10.166;2024-02-26T02:48:13;-0.10;99.90
16172;DHT22;8192;53.596;10.166;2024-02-26T02:50:40;-0.10;99.90
16172;DHT22;8192;53.596;10.166;2024-02-26T02:53:07;-0.10;99.90
16172;DHT22;8192;53.596;10.166;2024-02-26T02:55:36;0.00;99.90
16172;DHT22;8192;53.596;10.166;2024-02-26T02:58:03;0.00;99.90
16172;DHT22;8192;53.596;10.166;2024-02-26T03:00:30;0.00;99.90
16172;DHT22;8192;53.596;10.166;2024-02-26T03:02:57;-0.10;99.90
16172;DHT22;8192;53.596;10.166;2024-02-26T03:05:24;-0.20;99.90
16172;DHT22;8192;53.596;10.166;2024-02-26T03:07:51;-0.20;99.90
16172;DHT22;8192;53.596;10.166;2024-02-26T03:10:18;-0.30;99.90
16172;DHT22;8192;53.596;10.166;2024-02-26T03:12:47;-0.30;99.90
16172;DHT22;8192;53.596;10.166;2024-02-26T03:15:14;-0.20;99.90
16172;DHT22;8192;53.596;10.166;2024-02-26T03:17:42;-0.20;99.90
16172;DHT22;8192;53.596;10.166;2024-02-26T03:20:10;-0.20;99.90
16172;DHT22;8192;53.596;10.166;2024-02-26T03:22:38;-0.20;99.90
16172;DHT22;8192;53.596;10.166;2024-02-26T03:25:06;-0.20;99.90
16172;DHT22;8192;53.596;10.166;2024-02-26T03:27:33;-0.10;99.90
16172;DHT22;8192;53.596;10.166;2024-02-26T03:30:01;-0.10;99.90
16172;DHT22;8192;53.596;10.166;2024-02-26T03:32:29;-0.20;99.90
16172;DHT22;8192;53.596;10.166;2024-02-26T03:34:56;-0.30;99.90
16172;DHT22;8192;53.596;10.166;2024-02-26T03:37:23;-0.30;99.90
16172;DHT22;8192;53.596;10.166;2024-02-26T03:39:50;-0.20;99.90
16172;DHT22;8192;53.596;10.166;2024-02-26T03:42:17;-0.30;99.90
16172;DHT22;8192;53.596;10.166;2024-02-26T03:44:44;-0.30;99.90
16172;DHT22;8192;53.596;10.166;2024-02-26T03:47:13;-0.40;99.90
16172;DHT22;8192;53.596;10.166;2024-02-26T03:49:40;-0.50;99.90
16172;DHT22;8192;53.596;10.166;2024-02-26T03:52:07;-0.50;99.90
16172;DHT22;8192;53.596;10.166;2024-02-26T03:54:34;-0.50;99.90
16172;DHT22;8192;53.596;10.166;2024-02-26T03:57:01;-0.50;99.90
16172;DHT22;8192;53.596;10.166;2024-02-26T03:59:28;-0.50;99.90
16172;DHT22;8192;53.596;10.166;2024-02-26T04:01:55;-0.50;99.90
16172;DHT22;8192;53.596;10.166;2024-02-26T04:04:23;-0.50;99.90
16172;DHT22;8192;53.596;10.166;2024-02-26T04:06:50;-0.50;99.90
16172;DHT22;8192;53.596;10.166;2024-02-26T04:09:17;-0.60;99.90
16172;DHT22;8192;53.596;10.166;2024-02-26T04:11:44;-0.70;99.90
16172;DHT22;8192;53.596;10.166;2024-02-26T04:14:11;-0.60;99.90
16172;DHT22;8192;53.596;10.166;2024-02-26T04:16:38;-0.60;99.90
16172;DHT22;8192;53.596;10.166;2024-02-26T04:19:05;-0.50;99.90
16172;DHT22;8192;53.596;10.166;2024-02-26T04:21:33;-0.40;99.90
16172;DHT22;8192;53.596;10.166;2024-02-26T04:24:00;-0.30;99.90
16172;DHT22;8192;53.596;10.166;2024-02-26T04:26:28;-0.30;99.90
16172;DHT22;8192;53.596;10.166;2024-02-26T04:28:55;-0.40;99.90
16172;DHT22;8192;53.596;10.166;2024-02-26T04:31:22;-0.30;99.90
16172;DHT22;8192;53.596;10.166;2024-02-26T04:33:49;-0.30;99.90
16172;DHT22;8192;53.596;10.166;2024-02-26T04:36:16;-0.40;99.90
16172;DHT22;8192;53.596;10.166;2024-02-26T04:38:44;-0.50;99.90
16172;DHT22;8192;53.596;10.166;2024-02-26T04:41:11;-0.50;99.90
16172;DHT22;8192;53.596;10.166;2024-02-26T04:43:38;-0.50;99.90
16172;DHT22;8192;53.596;10.166;2024-02-26T04:46:07;-0.50;99.90
16172;DHT22;8192;53.596;10.166;2024-02-26T04:48:34;-0.60;99.90
16172;DHT22;8192;53.596;10.166;2024-02-26T04:51:01;-0.60;99.90
16172;DHT22;8192;53.596;10.166;2024-02-26T04:53:28;-0.50;99.90
16172;DHT22;8192;53.596;10.166;2024-02-26T04:55:56;-0.50;99.90
16172;DHT22;8192;53.596;10.166;2024-02-26T04:58:23;-0.50;99.90
16172;DHT22;8192;53.596;10.166;2024-02-26T05:00:50;-0.40;99.90
16172;DHT22;8192;53.596;10.166;2024-02-26T05:03:29;-0.40;99.90
16172;DHT22;8192;53.596;10.166;2024-02-26T05:06:00;-0.30;99.90
16172;DHT22;8192;53.596;10.166;2024-02-26T05:08:27;-0.30;99.90
16172;DHT22;8192;53.596;10.166;2024-02-26T05:10:57;-0.30;99.90
16172;DHT22;8192;53.596;10.166;2024-02-26T05:13:25;-0.30;99.90
16172;DHT22;8192;53.596;10.166;2024-02-26T05:15:52;-0.40;99.90
16172;DHT22;8192;53.596;10.166;2024-02-26T05:18:19;-0.40;99.90
16172;DHT22;8192;53.596;10.166;2024-02-26T05:20:46;-0.40;99.90
16172;DHT22;8192;53.596;10.166;2024-02-26T05:23:13;-0.50;99.90
16172;DHT22;8192;53.596;10.166;2024-02-26T05:25:40;-0.50;99.90
16172;DHT22;8192;53.596;10.166;2024-02-26T05:28:09;-0.40;99.90
16172;DHT22;8192;53.596;10.166;2024-02-26T05:30:36;-0.30;99.90
16172;DHT22;8192;53.596;10.166;2024-02-26T05:33:05;-0.20;99.90
16172;DHT22;8192;53.596;10.166;2024-02-26T05:35:38;-0.10;99.90
16172;DHT22;8192;53.596;10.166;2024-02-26T05:38:06;0.00;99.90
16172;DHT22;8192;53.596;10.166;2024-02-26T05:40:33;0.00;99.90
16172;DHT22;8192;53.596;10.166;2024-02-26T05:43:00;0.00;99.90
16172;DHT22;8192;53.596;10.166;2024-02-26T05:45:28;0.00;99.90
16172;DHT22;8192;53.596;10.166;2024-02-26T05:47:55;0.00;99.90
16172;DHT22;8192;53.596;10.166;2024-02-26T05:50:22;0.00;99.90
16172;DHT22;8192;53.596;10.166;2024-02-26T05:52:49;0.00;99.90
16172;DHT22;8192;53.596;10.166;2024-02-26T05:55:16;0.00;99.90
16172;DHT22;8192;53.596;10.166;2024-02-26T05:57:43;0.00;99.90
16172;DHT22;8192;53.596;10.166;2024-02-26T06:00:11;0.10;99.90
16172;DHT22;8192;53.596;10.166;2024-02-26T06:02:40;0.10;99.90
16172;DHT22;8192;53.596;10.166;2024-02-26T06:05:07;0.00;99.90
16172;DHT22;8192;53.596;10.166;2024-02-26T06:07:34;0.00;99.90
16172;DHT22;8192;53.596;10.166;2024-02-26T06:10:02;0.10;99.90
16172;DHT22;8192;53.596;10.166;2024-02-26T06:12:31;0.10;99.90
16172;DHT22;8192;53.596;10.166;2024-02-26T06:14:58;0.10;99.90
16172;DHT22;8192;53.596;10.166;2024-02-26T06:17:26;0.10;99.90
16172;DHT22;8192;53.596;10.166;2024-02-26T06:19:55;0.10;99.90
16172;DHT22;8192;53.596;10.166;2024-02-26T06:22:23;0.10;99.90
16172;DHT22;8192;53.596;10.166;2024-02-26T06:24:50;0.10;99.90
16172;DHT22;8192;53.596;10.166;2024-02-26T06:27:17;0.10;99.90
16172;DHT22;8192;53.596;10.166;2024-02-26T06:29:44;0.10;99.90
16172;DHT22;8192;53.596;10.166;2024-02-26T06:32:11;0.20;99.90
16172;DHT22;8192;53.596;10.166;2024-02-26T06:34:38;0.20;99.90
16172;DHT22;8192;53.596;10.166;2024-02-26T06:37:08;0.30;99.90
16172;DHT22;8192;53.596;10.166;2024-02-26T06:39:35;0.40;99.90
16172;DHT22;8192;53.596;10.166;2024-02-26T06:42:03;0.50;99.90
16172;DHT22;8192;53.596;10.166;2024-02-26T06:44:30;0.50;99.90
16172;DHT22;8192;53.596;10.166;2024-02-26T06:46:58;0.50;99.90
16172;DHT22;8192;53.596;10.166;2024-02-26T06:49:25;0.50;99.90
16172;DHT22;8192;53.596;10.166;2024-02-26T06:51:52;0.60;99.90
16172;DHT22;8192;53.596;10.166;2024-02-26T06:54:21;0.60;99.90
16172;DHT22;8192;53.596;10.166;2024-02-26T06:56:48;0.70;99.90
16172;DHT22;8192;53.596;10.166;2024-02-26T06:59:17;0.80;99.90
16172;DHT22;8192;53.596;10.166;2024-02-26T07:01:45;0.80;99.90
16172;DHT22;8192;53.596;10.166;2024-02-26T07:04:14;0.80;99.90
16172;DHT22;8192;53.596;10.166;2024-02-26T07:06:41;0.90;99.90
16172;DHT22;8192;53.596;10.166;2024-02-26T07:09:09;1.00;99.90
16172;DHT22;8192;53.596;10.166;2024-02-26T07:11:39;1.10;99.90
16172;DHT22;8192;53.596;10.166;2024-02-26T07:14:09;1.10;99.90
16172;DHT22;8192;53.596;10.166;2024-02-26T07:16:36;1.20;99.90
16172;DHT22;8192;53.596;10.166;2024-02-26T07:19:03;1.20;99.90
16172;DHT22;8192;53.596;10.166;2024-02-26T07:21:30;1.30;99.90
16172;DHT22;8192;53.596;10.166;2024-02-26T07:23:57;1.30;99.90
16172;DHT22;8192;53.596;10.166;2024-02-26T07:26:24;1.40;99.90
16172;DHT22;8192;53.596;10.166;2024-02-26T07:28:53;1.50;99.90
16172;DHT22;8192;53.596;10.166;2024-02-26T07:31:19;1.60;99.90
16172;DHT22;8192;53.596;10.166;2024-02-26T07:33:46;1.70;99.90
16172;DHT22;8192;53.596;10.166;2024-02-26T07:36:13;1.70;99.90
16172;DHT22;8192;53.596;10.166;2024-02-26T07:38:40;1.70;99.90
16172;DHT22;8192;53.596;10.166;2024-02-26T07:41:07;1.80;99.90
16172;DHT22;8192;53.596;10.166;2024-02-26T07:43:34;1.90;99.90
16172;DHT22;8192;53.596;10.166;2024-02-26T07:46:03;2.10;99.90
16172;DHT22;8192;53.596;10.166;2024-02-26T07:48:30;2.30;99.90
16172;DHT22;8192;53.596;10.166;2024-02-26T07:50:58;2.30;99.90
16172;DHT22;8192;53.596;10.166;2024-02-26T07:53:25;2.40;99.90
16172;DHT22;8192;53.596;10.166;2024-02-26T07:55:52;2.40;99.90
16172;DHT22;8192;53.596;10.166;2024-02-26T07:58:19;2.60;99.90
16172;DHT22;8192;53.596;10.166;2024-02-26T08:00:46;2.70;99.90
16172;DHT22;8192;53.596;10.166;2024-02-26T08:03:15;2.90;99.90
16172;DHT22;8192;53.596;10.166;2024-02-26T08:05:42;3.00;99.90
16172;DHT22;8192;53.596;10.166;2024-02-26T08:08:09;2.90;99.90
16172;DHT22;8192;53.596;10.166;2024-02-26T08:10:36;3.00;99.90
16172;DHT22;8192;53.596;10.166;2024-02-26T08:13:03;3.00;99.90
16172;DHT22;8192;53.596;10.166;2024-02-26T08:15:32;3.20;99.90
16172;DHT22;8192;53.596;10.166;2024-02-26T08:18:00;3.20;99.90
16172;DHT22;8192;53.596;10.166;2024-02-26T08:20:29;3.20;99.90
16172;DHT22;8192;53.596;10.166;2024-02-26T08:22:56;3.30;99.90
16172;DHT22;8192;53.596;10.166;2024-02-26T08:25:23;3.30;99.90
16172;DHT22;8192;53.596;10.166;2024-02-26T08:27:50;3.40;99.90
16172;DHT22;8192;53.596;10.166;2024-02-26T08:30:17;3.50;99.90
16172;DHT22;8192;53.596;10.166;2024-02-26T08:32:45;3.50;99.90
16172;DHT22;8192;53.596;10.166;2024-02-26T08:35:12;3.60;99.90
16172;DHT22;8192;53.596;10.166;2024-02-26T08:37:44;3.60;99.90
16172;DHT22;8192;53.596;10.166;2024-02-26T08:40:11;3.60;99.90
16172;DHT22;8192;53.596;10.166;2024-02-26T08:42:38;3.70;99.90
16172;DHT22;8192;53.596;10.166;2024-02-26T08:45:06;3.70;99.90
16172;DHT22;8192;53.596;10.166;2024-02-26T08:47:33;3.70;99.90
16172;DHT22;8192;53.596;10.166;2024-02-26T08:50:00;3.80;99.90
16172;DHT22;8192;53.596;10.166;2024-02-26T08:52:27;3.90;99.90
16172;DHT22;8192;53.596;10.166;2024-02-26T08:54:56;4.00;99.90
16172;DHT22;8192;53.596;10.166;2024-02-26T08:57:23;4.10;99.90
16172;DHT22;8192;53.596;10.166;2024-02-26T08:59:52;4.10;99.90
16172;DHT22;8192;53.596;10.166;2024-02-26T09:02:19;4.30;99.90
16172;DHT22;8192;53.596;10.166;2024-02-26T09:04:46;4.30;99.90
16172;DHT22;8192;53.596;10.166;2024-02-26T09:07:13;4.40;99.90
16172;DHT22;8192;53.596;10.166;2024-02-26T09:09:40;4.40;99.90
16172;DHT22;8192;53.596;10.166;2024-02-26T09:12:09;4.60;99.90
16172;DHT22;8192;53.596;10.166;2024-02-26T09:14:36;4.70;99.90
16172;DHT22;8192;53.596;10.166;2024-02-26T09:17:03;4.70;99.90
16172;DHT22;8192;53.596;10.166;2024-02-26T09:19:31;4.80;99.90
16172;DHT22;8192;53.596;10.166;2024-02-26T09:21:58;4.80;99.90
16172;DHT22;8192;53.596;10.166;2024-02-26T09:24:26;4.90;99.90
16172;DHT22;8192;53.596;10.166;2024-02-26T09:26:53;4.90;99.90
16172;DHT22;8192;53.596;10.166;2024-02-26T09:29:21;5.10;99.90
16172;DHT22;8192;53.596;10.166;2024-02-26T09:31:48;5.10;99.90
16172;DHT22;8192;53.596;10.166;2024-02-26T09:34:15;5.10;99.90
16172;DHT22;8192;53.596;10.166;2024-02-26T09:36:43;5.30;99.90
16172;DHT22;8192;53.596;10.166;2024-02-26T09:39:10;5.50;99.90
16172;DHT22;8192;53.596;10.166;2024-02-26T09:41:38;5.60;99.90
16172;DHT22;8192;53.596;10.166;2024-02-26T09:44:05;5.70;99.90
16172;DHT22;8192;53.596;10.166;2024-02-26T09:46:34;5.60;99.90
16172;DHT22;8192;53.596;10.166;2024-02-26T09:49:01;5.80;99.90
16172;DHT22;8192;53.596;10.166;2024-02-26T09:51:28;5.80;99.90
16172;DHT22;8192;53.596;10.166;2024-02-26T09:53:56;5.90;99.90
16172;DHT22;8192;53.596;10.166;2024-02-26T09:56:26;5.90;99.90
16172;DHT22;8192;53.596;10.166;2024-02-26T09:58:56;5.90;99.90
16172;DHT22;8192;53.596;10.166;2024-02-26T10:01:23;6.10;99.90
16172;DHT22;8192;53.596;10.166;2024-02-26T10:03:55;6.20;99.90
16172;DHT22;8192;53.596;10.166;2024-02-26T10:06:24;6.30;99.90
16172;DHT22;8192;53.596;10.166;2024-02-26T10:08:53;6.30;99.90
16172;DHT22;8192;53.596;10.166;2024-02-26T10:11:22;6.20;99.90
16172;DHT22;8192;53.596;10.166;2024-02-26T10:13:49;6.20;99.90
16172;DHT22;8192;53.596;10.166;2024-02-26T10:16:16;6.30;99.90
16172;DHT22;8192;53.596;10.166;2024-02-26T10:18:47;6.30;99.90
16172;DHT22;8192;53.596;10.166;2024-02-26T10:21:19;6.50;99.90
16172;DHT22;8192;53.596;10.166;2024-02-26T10:23:46;6.60;99.90
16172;DHT22;8192;53.596;10.166;2024-02-26T10:26:14;6.80;99.90
16172;DHT22;8192;53.596;10.166;2024-02-26T10:28:42;6.80;99.90
16172;DHT22;8192;53.596;10.166;2024-02-26T10:31:10;6.90;99.90
16172;DHT22;8192;53.596;10.166;2024-02-26T10:33:38;6.90;99.90
16172;DHT22;8192;53.596;10.166;2024-02-26T10:36:06;6.80;99.90
16172;DHT22;8192;53.596;10.166;2024-02-26T10:38:35;6.80;99.90
16172;DHT22;8192;53.596;10.166;2024-02-26T10:41:03;6.80;99.90
16172;DHT22;8192;53.596;10.166;2024-02-26T10:43:30;6.80;99.90
16172;DHT22;8192;53.596;10.166;2024-02-26T10:45:57;6.80;99.90
16172;DHT22;8192;53.596;10.166;2024-02-26T10:48:24;6.70;99.90
16172;DHT22;8192;53.596;10.166;2024-02-26T10:50:52;7.00;99.90
16172;DHT22;8192;53.596;10.166;2024-02-26T10:53:20;6.90;99.90
16172;DHT22;8192;53.596;10.166;2024-02-26T10:55:54;7.00;99.90
16172;DHT22;8192;53.596;10.166;2024-02-26T10:58:24;7.00;99.90
16172;DHT22;8192;53.596;10.166;2024-02-26T11:00:51;7.00;99.90
16172;DHT22;8192;53.596;10.166;2024-02-26T11:03:20;7.10;99.90
16172;DHT22;8192;53.596;10.166;2024-02-26T11:05:49;7.10;99.90
16172;DHT22;8192;53.596;10.166;2024-02-26T11:08:18;7.20;99.90
16172;DHT22;8192;53.596;10.166;2024-02-26T11:10:54;7.20;99.90
16172;DHT22;8192;53.596;10.166;2024-02-26T11:13:25;7.20;99.90
16172;DHT22;8192;53.596;10.166;2024-02-26T11:15:56;7.20;99.90
16172;DHT22;8192;53.596;10.166;2024-02-26T11:18:27;6.90;99.90
16172;DHT22;8192;53.596;10.166;2024-02-26T11:20:55;7.00;99.90
16172;DHT22;8192;53.596;10.166;2024-02-26T11:23:23;7.00;99.90
16172;DHT22;8192;53.596;10.166;2024-02-26T11:25:51;6.90;99.90
16172;DHT22;8192;53.596;10.166;2024-02-26T11:28:20;6.90;99.90
16172;DHT22;8192;53.596;10.166;2024-02-26T11:30:49;7.00;99.90
16172;DHT22;8192;53.596;10.166;2024-02-26T11:33:17;7.00;99.90
16172;DHT22;8192;53.596;10.166;2024-02-26T11:35:44;7.10;99.90
16172;DHT22;8192;53.596;10.166;2024-02-26T11:38:17;7.10;99.90
16172;DHT22;8192;53.596;10.166;2024-02-26T11:40:46;7.00;99.90
16172;DHT22;8192;53.596;10.166;2024-02-26T11:43:14;6.90;99.90
16172;DHT22;8192;53.596;10.166;2024-02-26T11:45:52;7.10;99.90
16172;DHT22;8192;53.596;10.166;2024-02-26T11:48:21;7.10;99.90
16172;DHT22;8192;53.596;10.166;2024-02-26T11:50:50;7.00;99.90
16172;DHT22;8192;53.596;10.166;2024-02-26T11:53:23;6.90;99.90
16172;DHT22;8192;53.596;10.166;2024-02-26T11:56:14;7.00;99.90
16172;DHT22;8192;53.596;10.166;2024-02-26T11:58:46;7.10;99.90
16172;DHT22;8192;53.596;10.166;2024-02-26T12:01:41;7.10;99.90
16172;DHT22;8192;53.596;10.166;2024-02-26T12:04:13;7.30;99.90
16172;DHT22;8192;53.596;10.166;2024-02-26T12:06:43;7.20;99.90
16172;DHT22;8192;53.596;10.166;2024-02-26T12:09:11;7.30;99.90
16172;DHT22;8192;53.596;10.166;2024-02-26T12:11:39;7.40;99.90
16172;DHT22;8192;53.596;10.166;2024-02-26T12:14:06;7.40;99.90
16172;DHT22;8192;53.596;10.166;2024-02-26T12:16:37;7.50;99.90
16172;DHT22;8192;53.596;10.166;2024-02-26T12:19:07;7.50;99.90
16172;DHT22;8192;53.596;10.166;2024-02-26T12:21:35;7.60;99.90
16172;DHT22;8192;53.596;10.166;2024-02-26T12:24:14;7.70;99.90
16172;DHT22;8192;53.596;10.166;2024-02-26T12:26:42;7.90;99.90
16172;DHT22;8192;53.596;10.166;2024-02-26T12:29:09;8.00;99.90
16172;DHT22;8192;53.596;10.166;2024-02-26T12:31:36;8.00;99.90
16172;DHT22;8192;53.596;10.166;2024-02-26T12:34:06;8.10;99.90
16172;DHT22;8192;53.596;10.166;2024-02-26T12:36:35;8.10;99.90
16172;DHT22;8192;53.596;10.166;2024-02-26T12:39:04;7.90;99.90
16172;DHT22;8192;53.596;10.166;2024-02-26T12:41:35;8.10;99.90
16172;DHT22;8192;53.596;10.166;2024-02-26T12:44:02;8.10;99.90
16172;DHT22;8192;53.596;10.166;2024-02-26T12:46:29;8.00;99.90
16172;DHT22;8192;53.596;10.166;2024-02-26T12:48:57;8.20;99.90
16172;DHT22;8192;53.596;10.166;2024-02-26T12:51:26;8.10;99.90
16172;DHT22;8192;53.596;10.166;2024-02-26T12:53:53;8.20;99.90
16172;DHT22;8192;53.596;10.166;2024-02-26T12:56:21;8.30;99.90
16172;DHT22;8192;53.596;10.166;2024-02-26T12:58:50;8.20;99.90
16172;DHT22;8192;53.596;10.166;2024-02-26T13:01:21;8.40;99.90
16172;DHT22;8192;53.596;10.166;2024-02-26T13:03:49;8.30;99.90
16172;DHT22;8192;53.596;10.166;2024-02-26T13:06:17;8.10;99.90
16172;DHT22;8192;53.596;10.166;2024-02-26T13:08:46;8.10;99.90
16172;DHT22;8192;53.596;10.166;2024-02-26T13:11:13;8.10;99.90
16172;DHT22;8192;53.596;10.166;2024-02-26T13:13:40;8.30;99.90
16172;DHT22;8192;53.596;10.166;2024-02-26T13:16:09;8.30;99.90
16172;DHT22;8192;53.596;10.166;2024-02-26T13:18:36;8.30;99.90
16172;DHT22;8192;53.596;10.166;2024-02-26T13:21:11;8.30;99.90
16172;DHT22;8192;53.596;10.166;2024-02-26T13:23:38;8.50;99.90
16172;DHT22;8192;53.596;10.166;2024-02-26T13:26:07;8.40;99.90
16172;DHT22;8192;53.596;10.166;2024-02-26T13:28:35;8.50;99.90
16172;DHT22;8192;53.596;10.166;2024-02-26T13:31:02;8.60;99.90
16172;DHT22;8192;53.596;10.166;2024-02-26T13:33:31;8.50;99.90
16172;DHT22;8192;53.596;10.166;2024-02-26T13:35:59;8.60;99.90
16172;DHT22;8192;53.596;10.166;2024-02-26T13:38:27;8.50;99.90
16172;DHT22;8192;53.596;10.166;2024-02-26T13:40:55;8.50;99.90
16172;DHT22;8192;53.596;10.166;2024-02-26T13:43:23;8.50;99.90
16172;DHT22;8192;53.596;10.166;2024-02-26T13:45:50;8.60;99.90
16172;DHT22;8192;53.596;10.166;2024-02-26T13:48:17;8.80;99.90
16172;DHT22;8192;53.596;10.166;2024-02-26T13:50:44;9.00;99.90
16172;DHT22;8192;53.596;10.166;2024-02-26T13:53:12;8.80;99.90
16172;DHT22;8192;53.596;10.166;2024-02-26T13:55:39;8.80;99.90
16172;DHT22;8192;53.596;10.166;2024-02-26T13:58:08;8.80;99.90
16172;DHT22;8192;53.596;10.166;2024-02-26T14:00:39;8.80;99.90
16172;DHT22;8192;53.596;10.166;2024-02-26T14:03:07;8.70;99.90
16172;DHT22;8192;53.596;10.166;2024-02-26T14:05:34;8.50;99.90
16172;DHT22;8192;53.596;10.166;2024-02-26T14:08:01;8.20;99.90
16172;DHT22;8192;53.596;10.166;2024-02-26T14:10:28;8.10;99.90
16172;DHT22;8192;53.596;10.166;2024-02-26T14:12:55;8.10;99.90
16172;DHT22;8192;53.596;10.166;2024-02-26T14:15:22;8.20;99.90
16172;DHT22;8192;53.596;10.166;2024-02-26T14:17:52;8.30;99.90
16172;DHT22;8192;53.596;10.166;2024-02-26T14:20:21;8.20;99.90
16172;DHT22;8192;53.596;10.166;2024-02-26T14:22:49;8.10;99.90
16172;DHT22;8192;53.596;10.166;2024-02-26T14:25:17;8.00;99.90
16172;DHT22;8192;53.596;10.166;2024-02-26T14:27:44;8.00;99.90
16172;DHT22;8192;53.596;10.166;2024-02-26T14:30:11;7.80;99.90
16172;DHT22;8192;53.596;10.166;2024-02-26T14:32:38;7.80;99.90
16172;DHT22;8192;53.596;10.166;2024-02-26T14:35:08;7.90;99.90
16172;DHT22;8192;53.596;10.166;2024-02-26T14:37:35;7.90;99.90
16172;DHT22;8192;53.596;10.166;2024-02-26T14:40:03;7.80;99.90
16172;DHT22;8192;53.596;10.166;2024-02-26T14:42:31;7.70;99.90
16172;DHT22;8192;53.596;10.166;2024-02-26T14:44:58;7.70;99.90
16172;DHT22;8192;53.596;10.166;2024-02-26T14:47:25;7.70;99.90
16172;DHT22;8192;53.596;10.166;2024-02-26T14:49:52;7.70;99.90
16172;DHT22;8192;53.596;10.166;2024-02-26T14:52:21;7.70;99.90
16172;DHT22;8192;53.596;10.166;2024-02-26T14:54:48;7.70;99.90
16172;DHT22;8192;53.596;10.166;2024-02-26T14:57:17;7.70;99.90
16172;DHT22;8192;53.596;10.166;2024-02-26T14:59:44;7.50;99.90
16172;DHT22;8192;53.596;10.166;2024-02-26T15:02:11;7.50;99.90
16172;DHT22;8192;53.596;10.166;2024-02-26T15:04:38;7.50;99.90
16172;DHT22;8192;53.596;10.166;2024-02-26T15:07:05;7.40;99.90
16172;DHT22;8192;53.596;10.166;2024-02-26T15:09:33;7.40;99.90
16172;DHT22;8192;53.596;10.166;2024-02-26T15:12:01;7.30;99.90
16172;DHT22;8192;53.596;10.166;2024-02-26T15:14:28;7.20;99.90
16172;DHT22;8192;53.596;10.166;2024-02-26T15:16:55;7.20;99.90
16172;DHT22;8192;53.596;10.166;2024-02-26T15:19:22;7.30;99.90
16172;DHT22;8192;53.596;10.166;2024-02-26T15:21:49;7.20;99.90
16172;DHT22;8192;53.596;10.166;2024-02-26T15:24:17;7.10;99.90
16172;DHT22;8192;53.596;10.166;2024-02-26T15:26:45;7.00;99.90
16172;DHT22;8192;53.596;10.166;2024-02-26T15:29:18;7.00;99.90
16172;DHT22;8192;53.596;10.166;2024-02-26T15:31:45;7.00;99.90
16172;DHT22;8192;53.596;10.166;2024-02-26T15:34:12;7.00;99.90
16172;DHT22;8192;53.596;10.166;2024-02-26T15:36:40;6.90;99.90
16172;DHT22;8192;53.596;10.166;2024-02-26T15:39:08;6.90;99.90
16172;DHT22;8192;53.596;10.166;2024-02-26T15:41:34;6.80;99.90
16172;DHT22;8192;53.596;10.166;2024-02-26T15:44:03;6.80;99.90
16172;DHT22;8192;53.596;10.166;2024-02-26T15:46:30;6.80;99.90